sensor_id;sensor_type;location;lat;lon;timestamp;pressure;altitude;pressure_sealevel;temperature;humidity
67109;BME280;54027;50.786;7.058;2023-05-11T00:00:36;100932.72;;;11.87;93.99
67109;BME280;54027;50.786;7.058;2023-05-11T00:03:01;100936.16;;;11.87;93.92
67109;BME280;54027;50.786;7.058;2023-05-11T00:05:27;100935.31;;;11.87;93.69
67109;BME280;54027;50.786;7.058;2023-05-11T00:07:55;100933.56;;;11.87;94.34
67109;BME280;54027;50.786;7.058;2023-05-11T00:10:20;100934.44;;;11.86;94.09
67109;BME280;54027;50.786;7.058;2023-05-11T00:12:46;100926.69;;;11.85;94.14
67109;BME280;54027;50.786;7.058;2023-05-11T00:15:11;100931.88;;;11.85;94.53
67109;BME280;54027;50.786;7.058;2023-05-11T00:17:36;100923.25;;;11.81;94.73
67109;BME280;54027;50.786;7.058;2023-05-11T00:20:02;100918.13;;;11.78;94.82
67109;BME280;54027;50.786;7.058;2023-05-11T00:22:27;100923.31;;;11.77;95.33
67109;BME280;54027;50.786;7.058;2023-05-11T00:24:53;100929.41;;;11.74;95.42
67109;BME280;54027;50.786;7.058;2023-05-11T00:27:19;100932.00;;;11.73;95.98
67109;BME280;54027;50.786;7.058;2023-05-11T00:29:44;100937.16;;;11.73;95.31
67109;BME280;54027;50.786;7.058;2023-05-11T00:32:09;100936.31;;;11.74;93.78
67109;BME280;54027;50.786;7.058;2023-05-11T00:34:35;100945.72;;;11.84;93.47
67109;BME280;54027;50.786;7.058;2023-05-11T00:37:00;100942.19;;;11.88;92.60
67109;BME280;54027;50.786;7.058;2023-05-11T00:39:26;100943.09;;;11.87;92.83
67109;BME280;54027;50.786;7.058;2023-05-11T00:41:51;100942.25;;;11.83;93.75
67109;BME280;54027;50.786;7.058;2023-05-11T00:44:16;100934.53;;;11.80;94.01
67109;BME280;54027;50.786;7.058;2023-05-11T00:46:42;100931.94;;;11.79;94.99
67109;BME280;54027;50.786;7.058;2023-05-11T00:49:07;100931.97;;;11.76;94.92
67109;BME280;54027;50.786;7.058;2023-05-11T00:51:35;100937.16;;;11.74;95.52
67109;BME280;54027;50.786;7.058;2023-05-11T00:54:00;100931.09;;;11.75;96.21
67109;BME280;54027;50.786;7.058;2023-05-11T00:56:26;100936.28;;;11.77;96.38
67109;BME280;54027;50.786;7.058;2023-05-11T00:58:52;100938.03;;;11.73;96.95
67109;BME280;54027;50.786;7.058;2023-05-11T01:01:17;100939.78;;;11.71;97.05
67109;BME280;54027;50.786;7.058;2023-05-11T01:03:43;100938.97;;;11.68;97.14
67109;BME280;54027;50.786;7.058;2023-05-11T01:06:17;100939.81;;;11.68;97.33
67109;BME280;54027;50.786;7.058;2023-05-11T01:08:53;100944.13;;;11.68;97.98
67109;BME280;54027;50.786;7.058;2023-05-11T01:11:52;100946.72;;;11.68;97.98
67109;BME280;54027;50.786;7.058;2023-05-11T01:14:34;100945.88;;;11.69;97.42
67109;BME280;54027;50.786;7.058;2023-05-11T01:17:09;100951.03;;;11.69;97.90
67109;BME280;54027;50.786;7.058;2023-05-11T01:19:51;100961.38;;;11.70;97.83
67109;BME280;54027;50.786;7.058;2023-05-11T01:30:56;100944.97;;;11.71;99.02
67109;BME280;54027;50.786;7.058;2023-05-11T01:33:30;100946.66;;;11.74;98.33
67109;BME280;54027;50.786;7.058;2023-05-11T01:36:01;100953.53;;;11.78;98.42
67109;BME280;54027;50.786;7.058;2023-05-11T01:38:31;100956.97;;;11.78;98.35
67109;BME280;54027;50.786;7.058;2023-05-11T01:40:59;100954.38;;;11.80;98.30
67109;BME280;54027;50.786;7.058;2023-05-11T01:43:29;100957.81;;;11.80;99.09
67109;BME280;54027;50.786;7.058;2023-05-11T01:45:59;100958.69;;;11.81;99.29
67109;BME280;54027;50.786;7.058;2023-05-11T01:48:28;100961.28;;;11.81;99.44
67109;BME280;54027;50.786;7.058;2023-05-11T01:50:58;100962.97;;;11.82;99.67
67109;BME280;54027;50.786;7.058;2023-05-11T01:53:27;100968.16;;;11.82;99.56
67109;BME280;54027;50.786;7.058;2023-05-11T01:55:54;100961.25;;;11.84;99.71
67109;BME280;54027;50.786;7.058;2023-05-11T01:58:23;100969.84;;;11.84;100.00
67109;BME280;54027;50.786;7.058;2023-05-11T02:00:50;100968.16;;;11.83;100.00
67109;BME280;54027;50.786;7.058;2023-05-11T02:03:17;100969.88;;;11.83;100.00
67109;BME280;54027;50.786;7.058;2023-05-11T02:05:45;100967.28;;;11.83;100.00
67109;BME280;54027;50.786;7.058;2023-05-11T02:08:13;100969.88;;;11.83;100.00
67109;BME280;54027;50.786;7.058;2023-05-11T02:10:40;100969.00;;;11.82;100.00
67109;BME280;54027;50.786;7.058;2023-05-11T02:13:06;100975.91;;;11.82;100.00
67109;BME280;54027;50.786;7.058;2023-05-11T02:15:32;100974.22;;;11.81;100.00
67109;BME280;54027;50.786;7.058;2023-05-11T02:18:00;100969.03;;;11.81;100.00
67109;BME280;54027;50.786;7.058;2023-05-11T02:20:27;100972.50;;;11.80;100.00
67109;BME280;54027;50.786;7.058;2023-05-11T02:22:53;100974.22;;;11.79;100.00
67109;BME280;54027;50.786;7.058;2023-05-11T02:25:21;100971.66;;;11.78;99.99
67109;BME280;54027;50.786;7.058;2023-05-11T02:27:47;100973.41;;;11.77;99.53
67109;BME280;54027;50.786;7.058;2023-05-11T02:30:12;100969.91;;;11.78;99.71
67109;BME280;54027;50.786;7.058;2023-05-11T02:32:43;100971.63;;;11.79;99.24
67109;BME280;54027;50.786;7.058;2023-05-11T02:35:22;100971.63;;;11.81;99.04
67109;BME280;54027;50.786;7.058;2023-05-11T02:37:48;100971.59;;;11.82;99.01
67109;BME280;54027;50.786;7.058;2023-05-11T02:40:19;100967.25;;;11.84;98.88
67109;BME280;54027;50.786;7.058;2023-05-11T02:42:54;100965.53;;;11.86;98.81
67109;BME280;54027;50.786;7.058;2023-05-11T02:45:21;100965.56;;;11.83;98.42
67109;BME280;54027;50.786;7.058;2023-05-11T02:47:53;100963.84;;;11.82;98.45
67109;BME280;54027;50.786;7.058;2023-05-11T02:50:20;100962.09;;;11.81;98.56
67109;BME280;54027;50.786;7.058;2023-05-11T02:52:47;100964.72;;;11.80;98.63
67109;BME280;54027;50.786;7.058;2023-05-11T02:55:15;100967.31;;;11.80;98.46
67109;BME280;54027;50.786;7.058;2023-05-11T02:57:42;100960.41;;;11.80;98.48
67109;BME280;54027;50.786;7.058;2023-05-11T03:00:10;100961.25;;;11.82;98.53
67109;BME280;54027;50.786;7.058;2023-05-11T03:02:36;100962.09;;;11.83;98.60
67109;BME280;54027;50.786;7.058;2023-05-11T03:05:02;100965.53;;;11.85;98.68
67109;BME280;54027;50.786;7.058;2023-05-11T03:07:30;100958.66;;;11.84;98.20
67109;BME280;54027;50.786;7.058;2023-05-11T03:09:55;100960.31;;;11.88;98.16
67109;BME280;54027;50.786;7.058;2023-05-11T03:12:21;100957.72;;;11.88;97.56
67109;BME280;54027;50.786;7.058;2023-05-11T03:14:47;100957.72;;;11.89;97.28
67109;BME280;54027;50.786;7.058;2023-05-11T03:17:14;100961.16;;;11.92;97.68
67109;BME280;54027;50.786;7.058;2023-05-11T03:19:40;100955.09;;;11.93;97.39
67109;BME280;54027;50.786;7.058;2023-05-11T03:22:07;100947.31;;;11.94;97.63
67109;BME280;54027;50.786;7.058;2023-05-11T03:24:33;100950.72;;;11.96;97.58
67109;BME280;54027;50.786;7.058;2023-05-11T03:27:00;100950.72;;;11.96;97.86
67109;BME280;54027;50.786;7.058;2023-05-11T03:29:26;100951.59;;;11.98;97.65
67109;BME280;54027;50.786;7.058;2023-05-11T03:31:53;100953.28;;;11.99;97.76
67109;BME280;54027;50.786;7.058;2023-05-11T03:34:19;100948.09;;;12.01;97.60
67109;BME280;54027;50.786;7.058;2023-05-11T03:36:47;100953.28;;;11.99;97.13
67109;BME280;54027;50.786;7.058;2023-05-11T03:39:14;100951.53;;;12.03;97.36
67109;BME280;54027;50.786;7.058;2023-05-11T03:41:41;100947.19;;;12.03;97.67
67109;BME280;54027;50.786;7.058;2023-05-11T03:44:09;100956.66;;;12.06;97.60
67109;BME280;54027;50.786;7.058;2023-05-11T03:46:37;100952.34;;;12.06;97.74
67109;BME280;54027;50.786;7.058;2023-05-11T03:49:04;100948.03;;;12.05;97.71
67109;BME280;54027;50.786;7.058;2023-05-11T03:51:30;100939.44;;;12.03;97.99
67109;BME280;54027;50.786;7.058;2023-05-11T03:53:57;100946.38;;;12.01;97.71
67109;BME280;54027;50.786;7.058;2023-05-11T03:56:22;100945.53;;;11.98;97.63
67109;BME280;54027;50.786;7.058;2023-05-11T03:58:48;100939.53;;;11.94;97.55
67109;BME280;54027;50.786;7.058;2023-05-11T04:01:13;100943.91;;;11.89;97.56
67109;BME280;54027;50.786;7.058;2023-05-11T04:03:50;100937.91;;;11.85;97.68
67109;BME280;54027;50.786;7.058;2023-05-11T04:06:16;100941.38;;;11.81;97.56
67109;BME280;54027;50.786;7.058;2023-05-11T04:08:42;100947.47;;;11.79;97.50
67109;BME280;54027;50.786;7.058;2023-05-11T04:11:07;100948.34;;;11.76;97.26
67109;BME280;54027;50.786;7.058;2023-05-11T04:13:33;100942.34;;;11.74;97.83
67109;BME280;54027;50.786;7.058;2023-05-11T04:15:58;100946.69;;;11.71;98.26
67109;BME280;54027;50.786;7.058;2023-05-11T04:18:23;100943.28;;;11.67;98.40
67109;BME280;54027;50.786;7.058;2023-05-11T04:20:49;100950.22;;;11.65;97.98
67109;BME280;54027;50.786;7.058;2023-05-11T04:23:14;100943.31;;;11.66;97.89
67109;BME280;54027;50.786;7.058;2023-05-11T04:25:40;100945.88;;;11.67;98.02
67109;BME280;54027;50.786;7.058;2023-05-11T04:28:05;100955.31;;;11.70;98.13
67109;BME280;54027;50.786;7.058;2023-05-11T04:30:30;100952.75;;;11.71;98.02
67109;BME280;54027;50.786;7.058;2023-05-11T04:32:56;100962.16;;;11.77;98.03
67109;BME280;54027;50.786;7.058;2023-05-11T04:35:21;100964.69;;;11.81;98.20
67109;BME280;54027;50.786;7.058;2023-05-11T04:37:47;100967.25;;;11.86;97.62
67109;BME280;54027;50.786;7.058;2023-05-11T04:40:13;100959.44;;;11.92;97.00
67109;BME280;54027;50.786;7.058;2023-05-11T04:42:38;100966.28;;;11.98;96.95
67109;BME280;54027;50.786;7.058;2023-05-11T04:45:04;100968.78;;;12.04;96.91
67109;BME280;54027;50.786;7.058;2023-05-11T04:47:30;100976.53;;;12.05;95.49
67109;BME280;54027;50.786;7.058;2023-05-11T04:49:55;100969.53;;;12.15;95.66
67109;BME280;54027;50.786;7.058;2023-05-11T04:52:20;100974.63;;;12.21;95.50
67109;BME280;54027;50.786;7.058;2023-05-11T04:54:46;100978.91;;;12.25;95.31
67109;BME280;54027;50.786;7.058;2023-05-11T04:57:11;100972.81;;;12.29;95.08
67109;BME280;54027;50.786;7.058;2023-05-11T04:59:36;100980.50;;;12.35;95.26
67109;BME280;54027;50.786;7.058;2023-05-11T05:02:02;100976.09;;;12.41;95.14
67109;BME280;54027;50.786;7.058;2023-05-11T05:04:27;100976.91;;;12.46;94.58
67109;BME280;54027;50.786;7.058;2023-05-11T05:06:53;100977.69;;;12.53;94.43
67109;BME280;54027;50.786;7.058;2023-05-11T05:09:18;100972.41;;;12.61;94.42
67109;BME280;54027;50.786;7.058;2023-05-11T05:11:44;100974.09;;;12.62;93.18
67109;BME280;54027;50.786;7.058;2023-05-11T05:14:09;100984.44;;;12.65;92.67
67109;BME280;54027;50.786;7.058;2023-05-11T05:16:35;100984.34;;;12.72;92.74
67109;BME280;54027;50.786;7.058;2023-05-11T05:19:00;100987.72;;;12.77;92.40
67109;BME280;54027;50.786;7.058;2023-05-11T05:21:26;100991.16;;;12.81;92.01
67109;BME280;54027;50.786;7.058;2023-05-11T05:23:51;100993.66;;;12.87;92.64
67109;BME280;54027;50.786;7.058;2023-05-11T05:26:16;100990.16;;;12.91;91.27
67109;BME280;54027;50.786;7.058;2023-05-11T05:28:42;100997.00;;;12.96;91.49
67109;BME280;54027;50.786;7.058;2023-05-11T05:31:07;100996.13;;;12.96;90.05
67109;BME280;54027;50.786;7.058;2023-05-11T05:33:32;100993.50;;;12.99;90.04
67109;BME280;54027;50.786;7.058;2023-05-11T05:35:58;100998.69;;;12.97;89.42
67109;BME280;54027;50.786;7.058;2023-05-11T05:38:23;101000.41;;;13.02;89.61
67109;BME280;54027;50.786;7.058;2023-05-11T05:40:48;101003.72;;;13.10;90.00
67109;BME280;54027;50.786;7.058;2023-05-11T05:43:14;100998.53;;;13.11;88.78
67109;BME280;54027;50.786;7.058;2023-05-11T05:45:39;100995.84;;;13.16;88.38
67109;BME280;54027;50.786;7.058;2023-05-11T05:48:05;100999.16;;;13.25;89.48
67109;BME280;54027;50.786;7.058;2023-05-11T05:50:31;101006.81;;;13.34;89.92
67109;BME280;54027;50.786;7.058;2023-05-11T05:52:57;101011.91;;;13.39;89.06
67109;BME280;54027;50.786;7.058;2023-05-11T05:55:22;101014.47;;;13.43;88.79
67109;BME280;54027;50.786;7.058;2023-05-11T05:57:48;101018.75;;;13.46;88.94
67109;BME280;54027;50.786;7.058;2023-05-11T06:00:14;101013.50;;;13.49;88.53
67109;BME280;54027;50.786;7.058;2023-05-11T06:02:40;101013.47;;;13.50;88.78
67109;BME280;54027;50.786;7.058;2023-05-11T06:05:06;101017.78;;;13.51;88.57
67109;BME280;54027;50.786;7.058;2023-05-11T06:07:31;101015.25;;;13.48;87.71
67109;BME280;54027;50.786;7.058;2023-05-11T06:09:57;101023.75;;;13.56;88.44
67109;BME280;54027;50.786;7.058;2023-05-11T06:12:23;101018.44;;;13.63;88.16
67109;BME280;54027;50.786;7.058;2023-05-11T06:14:48;101023.63;;;13.64;87.67
67109;BME280;54027;50.786;7.058;2023-05-11T06:17:14;101019.25;;;13.68;88.03
67109;BME280;54027;50.786;7.058;2023-05-11T06:19:39;101022.72;;;13.68;88.03
67109;BME280;54027;50.786;7.058;2023-05-11T06:22:05;101023.59;;;13.66;86.50
67109;BME280;54027;50.786;7.058;2023-05-11T06:24:30;101023.59;;;13.66;88.41
67109;BME280;54027;50.786;7.058;2023-05-11T06:26:56;101023.63;;;13.64;86.95
67109;BME280;54027;50.786;7.058;2023-05-11T06:29:21;101020.22;;;13.61;87.16
67109;BME280;54027;50.786;7.058;2023-05-11T06:31:47;101026.25;;;13.63;88.02
67109;BME280;54027;50.786;7.058;2023-05-11T06:34:20;101025.38;;;13.64;87.56
67109;BME280;54027;50.786;7.058;2023-05-11T06:36:47;101015.03;;;13.62;86.35
67109;BME280;54027;50.786;7.058;2023-05-11T06:39:12;101021.00;;;13.67;87.16
67109;BME280;54027;50.786;7.058;2023-05-11T06:41:38;101013.97;;;13.74;86.71
67109;BME280;54027;50.786;7.058;2023-05-11T06:44:03;101015.53;;;13.81;86.73
67109;BME280;54027;50.786;7.058;2023-05-11T06:46:30;101016.44;;;13.80;84.94
67109;BME280;54027;50.786;7.058;2023-05-11T06:48:55;101021.56;;;13.84;86.31
67109;BME280;54027;50.786;7.058;2023-05-11T06:51:21;101023.34;;;13.81;86.21
67109;BME280;54027;50.786;7.058;2023-05-11T06:53:47;101019.91;;;13.79;85.66
67109;BME280;54027;50.786;7.058;2023-05-11T06:56:12;101020.69;;;13.85;86.19
67109;BME280;54027;50.786;7.058;2023-05-11T06:58:38;101018.94;;;13.86;85.04
67109;BME280;54027;50.786;7.058;2023-05-11T07:01:03;101021.28;;;13.98;86.19
67109;BME280;54027;50.786;7.058;2023-05-11T07:03:35;101016.09;;;13.99;84.57
67109;BME280;54027;50.786;7.058;2023-05-11T07:06:01;101020.41;;;13.99;84.99
67109;BME280;54027;50.786;7.058;2023-05-11T07:08:27;101023.03;;;13.99;85.64
67109;BME280;54027;50.786;7.058;2023-05-11T07:10:52;101016.03;;;14.02;85.80
67109;BME280;54027;50.786;7.058;2023-05-11T07:13:18;101022.84;;;14.08;86.20
67109;BME280;54027;50.786;7.058;2023-05-11T07:15:43;101029.66;;;14.15;86.57
67109;BME280;54027;50.786;7.058;2023-05-11T07:18:09;101024.34;;;14.21;84.92
67109;BME280;54027;50.786;7.058;2023-05-11T07:20:34;101031.06;;;14.31;85.31
67109;BME280;54027;50.786;7.058;2023-05-11T07:23:01;101030.09;;;14.38;83.92
67109;BME280;54027;50.786;7.058;2023-05-11T07:25:27;101027.38;;;14.44;84.10
67109;BME280;54027;50.786;7.058;2023-05-11T07:27:53;101029.06;;;14.47;83.23
67109;BME280;54027;50.786;7.058;2023-05-11T07:30:18;101030.75;;;14.49;83.97
67109;BME280;54027;50.786;7.058;2023-05-11T07:32:44;101031.50;;;14.54;84.07
67109;BME280;54027;50.786;7.058;2023-05-11T07:35:09;101034.09;;;14.54;83.54
67109;BME280;54027;50.786;7.058;2023-05-11T07:37:34;101025.41;;;14.55;83.15
67109;BME280;54027;50.786;7.058;2023-05-11T07:40:00;101026.94;;;14.65;83.72
67109;BME280;54027;50.786;7.058;2023-05-11T07:42:25;101025.03;;;14.74;83.03
67109;BME280;54027;50.786;7.058;2023-05-11T07:44:51;101022.97;;;14.88;82.77
67109;BME280;54027;50.786;7.058;2023-05-11T07:47:17;101022.66;;;15.03;82.84
67109;BME280;54027;50.786;7.058;2023-05-11T07:49:45;101028.38;;;15.17;83.02
67109;BME280;54027;50.786;7.058;2023-05-11T07:52:12;101009.78;;;15.34;80.82
67109;BME280;54027;50.786;7.058;2023-05-11T07:54:38;101016.38;;;15.48;80.18
67109;BME280;54027;50.786;7.058;2023-05-11T07:57:04;101008.09;;;15.68;80.43
67109;BME280;54027;50.786;7.058;2023-05-11T07:59:30;101013.72;;;15.85;80.06
67109;BME280;54027;50.786;7.058;2023-05-11T08:01:55;101005.94;;;15.84;77.60
67109;BME280;54027;50.786;7.058;2023-05-11T08:04:21;101014.09;;;16.04;77.98
67109;BME280;54027;50.786;7.058;2023-05-11T08:06:46;101002.09;;;16.29;77.62
67109;BME280;54027;50.786;7.058;2023-05-11T08:09:11;100990.41;;;16.42;76.12
67109;BME280;54027;50.786;7.058;2023-05-11T08:11:37;100986.66;;;16.52;75.05
67109;BME280;54027;50.786;7.058;2023-05-11T08:14:02;100997.34;;;16.72;76.28
67109;BME280;54027;50.786;7.058;2023-05-11T08:16:27;100983.19;;;16.81;74.49
67109;BME280;54027;50.786;7.058;2023-05-11T08:18:53;101001.47;;;16.81;74.64
67109;BME280;54027;50.786;7.058;2023-05-11T08:21:18;101014.59;;;16.79;74.74
67109;BME280;54027;50.786;7.058;2023-05-11T08:23:44;101008.56;;;16.76;74.32
67109;BME280;54027;50.786;7.058;2023-05-11T08:26:09;100997.34;;;16.72;73.54
67109;BME280;54027;50.786;7.058;2023-05-11T08:28:35;100994.84;;;16.39;72.90
67109;BME280;54027;50.786;7.058;2023-05-11T08:31:00;101003.38;;;16.45;73.67
67109;BME280;54027;50.786;7.058;2023-05-11T08:33:25;101008.28;;;16.56;74.33
67109;BME280;54027;50.786;7.058;2023-05-11T08:35:54;101001.69;;;16.73;73.28
67109;BME280;54027;50.786;7.058;2023-05-11T08:38:19;100991.97;;;16.78;72.11
67109;BME280;54027;50.786;7.058;2023-05-11T08:40:44;100975.84;;;16.64;70.84
67109;BME280;54027;50.786;7.058;2023-05-11T08:43:17;100971.00;;;16.81;70.81
67109;BME280;54027;50.786;7.058;2023-05-11T08:45:44;100985.44;;;16.93;71.51
67109;BME280;54027;50.786;7.058;2023-05-11T08:48:14;100969.75;;;16.93;70.26
67109;BME280;54027;50.786;7.058;2023-05-11T08:50:43;100946.66;;;16.81;68.03
67109;BME280;54027;50.786;7.058;2023-05-11T08:53:08;100972.88;;;17.04;69.95
67109;BME280;54027;50.786;7.058;2023-05-11T08:55:34;100977.41;;;17.27;70.07
67109;BME280;54027;50.786;7.058;2023-05-11T08:58:02;100966.75;;;17.58;69.46
67109;BME280;54027;50.786;7.058;2023-05-11T09:00:29;100932.66;;;17.62;67.33
67109;BME280;54027;50.786;7.058;2023-05-11T09:02:56;100926.06;;;17.51;66.19
67109;BME280;54027;50.786;7.058;2023-05-11T09:05:22;100929.88;;;17.42;66.62
67109;BME280;54027;50.786;7.058;2023-05-11T09:07:49;100936.34;;;17.55;66.47
67109;BME280;54027;50.786;7.058;2023-05-11T09:10:17;100938.53;;;17.69;66.56
67109;BME280;54027;50.786;7.058;2023-05-11T09:12:42;100938.69;;;17.89;66.27
67109;BME280;54027;50.786;7.058;2023-05-11T09:15:08;100917.44;;;17.98;65.39
67109;BME280;54027;50.786;7.058;2023-05-11T09:17:33;100929.16;;;18.11;65.56
67109;BME280;54027;50.786;7.058;2023-05-11T09:20:00;100935.09;;;18.16;65.71
67109;BME280;54027;50.786;7.058;2023-05-11T09:22:26;100925.13;;;18.26;64.95
67109;BME280;54027;50.786;7.058;2023-05-11T09:24:52;100904.03;;;18.30;63.67
67109;BME280;54027;50.786;7.058;2023-05-11T09:27:18;100933.81;;;18.26;65.13
67109;BME280;54027;50.786;7.058;2023-05-11T09:29:44;100897.41;;;18.20;63.37
67109;BME280;54027;50.786;7.058;2023-05-11T09:32:09;100917.44;;;18.21;64.08
67109;BME280;54027;50.786;7.058;2023-05-11T09:34:34;100897.16;;;18.28;62.98
67109;BME280;54027;50.786;7.058;2023-05-11T09:37:00;100902.19;;;18.32;62.90
67109;BME280;54027;50.786;7.058;2023-05-11T09:39:32;100930.47;;;18.46;65.07
67109;BME280;54027;50.786;7.058;2023-05-11T09:44:39;100882.94;;;18.57;61.92
67109;BME280;54027;50.786;7.058;2023-05-11T09:47:16;100846.22;;;18.58;59.90
67109;BME280;54027;50.786;7.058;2023-05-11T09:49:43;100879.72;;;18.72;60.75
67109;BME280;54027;50.786;7.058;2023-05-11T09:52:16;100861.44;;;18.92;60.17
67109;BME280;54027;50.786;7.058;2023-05-11T09:54:44;100867.78;;;19.08;60.09
67109;BME280;54027;50.786;7.058;2023-05-11T09:59:52;100879.13;;;19.49;60.58
67109;BME280;54027;50.786;7.058;2023-05-11T10:02:23;100863.03;;;19.56;59.97
67109;BME280;54027;50.786;7.058;2023-05-11T10:04:50;100877.81;;;19.59;60.54
67109;BME280;54027;50.786;7.058;2023-05-11T10:09:56;100847.19;;;19.19;59.03
67109;BME280;54027;50.786;7.058;2023-05-11T10:12:23;100831.66;;;19.15;58.30
67109;BME280;54027;50.786;7.058;2023-05-11T10:14:53;100861.03;;;19.43;59.28
67109;BME280;54027;50.786;7.058;2023-05-11T10:17:19;100824.97;;;19.48;57.68
67109;BME280;54027;50.786;7.058;2023-05-11T10:19:46;100812.00;;;19.45;57.26
67109;BME280;54027;50.786;7.058;2023-05-11T10:22:12;100829.31;;;19.49;58.01
67109;BME280;54027;50.786;7.058;2023-05-11T10:24:37;100829.94;;;19.54;58.56
67109;BME280;54027;50.786;7.058;2023-05-11T10:27:03;100849.38;;;19.69;59.01
67109;BME280;54027;50.786;7.058;2023-05-11T10:29:30;100811.41;;;19.58;56.93
67109;BME280;54027;50.786;7.058;2023-05-11T10:31:57;100835.06;;;19.57;58.44
67109;BME280;54027;50.786;7.058;2023-05-11T10:34:24;100845.81;;;19.51;58.99
67109;BME280;54027;50.786;7.058;2023-05-11T10:36:52;100812.25;;;19.39;57.37
67109;BME280;54027;50.786;7.058;2023-05-11T10:39:18;100818.38;;;18.99;57.22
67109;BME280;54027;50.786;7.058;2023-05-11T10:44:43;100885.28;;;19.28;60.99
67109;BME280;54027;50.786;7.058;2023-05-11T11:01:27;100934.28;;;18.14;63.69
67109;BME280;54027;50.786;7.058;2023-05-11T11:04:01;100972.69;;;17.89;65.97
67109;BME280;54027;50.786;7.058;2023-05-11T11:06:30;100970.53;;;18.00;66.24
67109;BME280;54027;50.786;7.058;2023-05-11T11:08:59;100963.16;;;18.11;65.94
67109;BME280;54027;50.786;7.058;2023-05-11T11:11:28;100957.78;;;17.91;65.86
67109;BME280;54027;50.786;7.058;2023-05-11T11:13:56;100964.97;;;17.86;66.31
67109;BME280;54027;50.786;7.058;2023-05-11T11:16:22;100939.22;;;17.99;65.28
67109;BME280;54027;50.786;7.058;2023-05-11T11:18:49;100950.47;;;18.01;65.75
67109;BME280;54027;50.786;7.058;2023-05-11T11:21:41;100932.75;;;18.09;64.77
67109;BME280;54027;50.786;7.058;2023-05-11T11:24:06;100955.94;;;18.18;65.64
67109;BME280;54027;50.786;7.058;2023-05-11T11:26:52;100951.41;;;18.23;66.01
67109;BME280;54027;50.786;7.058;2023-05-11T11:29:17;100917.97;;;18.08;64.65
67109;BME280;54027;50.786;7.058;2023-05-11T11:31:43;100905.13;;;18.25;64.19
67109;BME280;54027;50.786;7.058;2023-05-11T11:39:24;100873.97;;;18.62;62.26
67109;BME280;54027;50.786;7.058;2023-05-11T11:42:04;100869.41;;;18.67;62.23
67109;BME280;54027;50.786;7.058;2023-05-11T11:44:32;100880.69;;;18.91;62.30
67109;BME280;54027;50.786;7.058;2023-05-11T11:49:37;100845.91;;;19.29;61.01
67109;BME280;54027;50.786;7.058;2023-05-11T11:52:03;100835.56;;;19.26;60.64
67109;BME280;54027;50.786;7.058;2023-05-11T11:54:40;100854.22;;;19.19;61.67
67109;BME280;54027;50.786;7.058;2023-05-11T12:00:04;100826.72;;;19.47;60.30
67109;BME280;54027;50.786;7.058;2023-05-11T12:02:32;100834.19;;;19.77;60.32
67109;BME280;54027;50.786;7.058;2023-05-11T12:05:12;100835.72;;;20.20;60.67
67109;BME280;54027;50.786;7.058;2023-05-11T12:07:44;100752.75;;;20.34;57.05
67109;BME280;54027;50.786;7.058;2023-05-11T12:10:12;100777.94;;;20.38;57.30
67109;BME280;54027;50.786;7.058;2023-05-11T12:12:38;100783.34;;;20.35;57.93
67109;BME280;54027;50.786;7.058;2023-05-11T12:15:05;100776.75;;;20.27;57.22
67109;BME280;54027;50.786;7.058;2023-05-11T12:17:31;100780.84;;;20.32;57.54
67109;BME280;54027;50.786;7.058;2023-05-11T12:20:12;100781.47;;;20.37;57.31
67109;BME280;54027;50.786;7.058;2023-05-11T12:22:38;100769.06;;;20.41;57.05
67109;BME280;54027;50.786;7.058;2023-05-11T12:25:04;100786.00;;;20.52;58.00
67109;BME280;54027;50.786;7.058;2023-05-11T12:27:30;100753.50;;;20.72;56.36
67109;BME280;54027;50.786;7.058;2023-05-11T12:29:56;100720.47;;;20.66;54.74
67109;BME280;54027;50.786;7.058;2023-05-11T12:32:29;100706.78;;;20.26;54.12
67109;BME280;54027;50.786;7.058;2023-05-11T12:35:03;100744.66;;;20.39;55.45
67109;BME280;54027;50.786;7.058;2023-05-11T12:37:29;100754.34;;;20.20;55.87
67109;BME280;54027;50.786;7.058;2023-05-11T12:39:56;100741.78;;;20.26;55.76
67109;BME280;54027;50.786;7.058;2023-05-11T12:42:22;100724.66;;;20.36;55.14
67109;BME280;54027;50.786;7.058;2023-05-11T12:44:47;100742.25;;;20.51;55.89
67109;BME280;54027;50.786;7.058;2023-05-11T12:47:13;100725.13;;;20.44;54.98
67109;BME280;54027;50.786;7.058;2023-05-11T12:49:40;100719.72;;;20.47;54.66
67109;BME280;54027;50.786;7.058;2023-05-11T12:52:06;100706.84;;;20.60;54.76
67109;BME280;54027;50.786;7.058;2023-05-11T12:54:37;100757.38;;;20.82;57.15
67109;BME280;54027;50.786;7.058;2023-05-11T12:57:04;100723.91;;;21.03;55.25
67109;BME280;54027;50.786;7.058;2023-05-11T12:59:33;100700.19;;;21.04;54.22
67109;BME280;54027;50.786;7.058;2023-05-11T13:04:30;100705.69;;;20.65;54.08
67109;BME280;54027;50.786;7.058;2023-05-11T13:06:56;100683.34;;;20.57;53.08
67109;BME280;54027;50.786;7.058;2023-05-11T13:09:23;100690.97;;;20.61;53.61
67109;BME280;54027;50.786;7.058;2023-05-11T13:12:17;100680.88;;;20.54;52.76
67109;BME280;54027;50.786;7.058;2023-05-11T13:14:47;100692.47;;;20.50;53.51
67109;BME280;54027;50.786;7.058;2023-05-11T13:17:28;100705.78;;;20.11;54.09
67109;BME280;54027;50.786;7.058;2023-05-11T13:19:54;100734.50;;;19.95;54.93
67109;BME280;54027;50.786;7.058;2023-05-11T13:22:19;100751.81;;;19.62;56.00
67109;BME280;54027;50.786;7.058;2023-05-11T13:24:45;100769.00;;;19.49;56.79
67109;BME280;54027;50.786;7.058;2023-05-11T13:27:10;100773.06;;;19.36;56.74
67109;BME280;54027;50.786;7.058;2023-05-11T13:29:36;100775.06;;;19.31;57.13
67109;BME280;54027;50.786;7.058;2023-05-11T13:32:01;100783.97;;;19.27;57.79
67109;BME280;54027;50.786;7.058;2023-05-11T13:34:26;100776.91;;;19.29;57.88
67109;BME280;54027;50.786;7.058;2023-05-11T13:36:52;100812.22;;;19.20;58.91